sensor_id;sensor_type;location;lat;lon;timestamp;pressure;altitude;pressure_sealevel;temperature;humidity
55990;BME280;41875;55.806;38.082;2022-07-29T00:01:18;99360.38;;;19.63;61.99
55990;BME280;41875;55.806;38.082;2022-07-29T00:03:46;99361.25;;;20.01;60.84
55990;BME280;41875;55.806;38.082;2022-07-29T00:06:16;99357.84;;;19.49;61.39
55990;BME280;41875;55.806;38.082;2022-07-29T00:08:45;99374.44;;;19.65;60.93
55990;BME280;41875;55.806;38.082;2022-07-29T00:11:13;99364.31;;;19.16;62.09
55990;BME280;41875;55.806;38.082;2022-07-29T00:13:41;99359.84;;;19.36;61.44
55990;BME280;41875;55.806;38.082;2022-07-29T00:16:16;99369.72;;;19.60;60.68
55990;BME280;41875;55.806;38.082;2022-07-29T00:18:47;99370.34;;;19.81;59.89
55990;BME280;41875;55.806;38.082;2022-07-29T00:21:17;99372.03;;;19.75;59.78
55990;BME280;41875;55.806;38.082;2022-07-29T00:23:45;99369.88;;;19.84;59.99
55990;BME280;41875;55.806;38.082;2022-07-29T00:26:13;99371.22;;;19.31;61.19
55990;BME280;41875;55.806;38.082;2022-07-29T00:28:42;99373.84;;;19.38;60.81
55990;BME280;41875;55.806;38.082;2022-07-29T00:31:10;99373.16;;;19.49;59.86
55990;BME280;41875;55.806;38.082;2022-07-29T00:33:39;99375.66;;;19.44;60.17
55990;BME280;41875;55.806;38.082;2022-07-29T00:36:07;99376.38;;;19.32;59.96
55990;BME280;41875;55.806;38.082;2022-07-29T00:38:36;99366.38;;;19.40;59.90
55990;BME280;41875;55.806;38.082;2022-07-29T00:41:04;99370.63;;;19.29;60.37
55990;BME280;41875;55.806;38.082;2022-07-29T00:43:32;99378.03;;;19.33;59.76
55990;BME280;41875;55.806;38.082;2022-07-29T00:46:00;99377.59;;;19.11;61.00
55990;BME280;41875;55.806;38.082;2022-07-29T00:48:29;99379.34;;;18.92;61.02
55990;BME280;41875;55.806;38.082;2022-07-29T00:50:57;99387.66;;;18.84;61.36
55990;BME280;41875;55.806;38.082;2022-07-29T00:53:26;99391.50;;;19.01;60.75
55990;BME280;41875;55.806;38.082;2022-07-29T00:55:56;99386.88;;;19.09;60.20
55990;BME280;41875;55.806;38.082;2022-07-29T00:58:24;99394.75;;;19.10;60.44
55990;BME280;41875;55.806;38.082;2022-07-29T01:00:54;99396.66;;;19.28;59.73
55990;BME280;41875;55.806;38.082;2022-07-29T01:03:22;99386.41;;;19.44;59.04
55990;BME280;41875;55.806;38.082;2022-07-29T01:05:51;99395.19;;;19.32;59.37
55990;BME280;41875;55.806;38.082;2022-07-29T01:08:20;99407.94;;;19.12;60.02
55990;BME280;41875;55.806;38.082;2022-07-29T01:10:49;99394.66;;;19.68;58.07
55990;BME280;41875;55.806;38.082;2022-07-29T01:13:21;99392.03;;;20.05;56.94
55990;BME280;41875;55.806;38.082;2022-07-29T01:15:52;99405.19;;;19.94;56.98
55990;BME280;41875;55.806;38.082;2022-07-29T01:18:24;99399.47;;;19.40;58.92
55990;BME280;41875;55.806;38.082;2022-07-29T01:21:03;99394.59;;;19.30;59.01
55990;BME280;41875;55.806;38.082;2022-07-29T01:26:27;99399.88;;;19.12;59.18
55990;BME280;41875;55.806;38.082;2022-07-29T01:29:03;99406.69;;;19.40;58.59
55990;BME280;41875;55.806;38.082;2022-07-29T01:31:36;99404.72;;;19.54;58.25
55990;BME280;41875;55.806;38.082;2022-07-29T01:34:27;99412.34;;;19.75;57.54
55990;BME280;41875;55.806;38.082;2022-07-29T01:37:01;99406.00;;;19.44;58.23
55990;BME280;41875;55.806;38.082;2022-07-29T01:39:32;99408.47;;;18.95;59.79
55990;BME280;41875;55.806;38.082;2022-07-29T01:42:04;99411.00;;;19.15;59.34
55990;BME280;41875;55.806;38.082;2022-07-29T01:44:35;99407.19;;;19.04;59.45
55990;BME280;41875;55.806;38.082;2022-07-29T01:47:07;99415.84;;;18.61;60.97
55990;BME280;41875;55.806;38.082;2022-07-29T01:49:39;99414.25;;;19.24;59.08
55990;BME280;41875;55.806;38.082;2022-07-29T01:52:11;99415.88;;;18.93;60.36
55990;BME280;41875;55.806;38.082;2022-07-29T01:54:45;99409.47;;;18.55;61.43
55990;BME280;41875;55.806;38.082;2022-07-29T01:57:15;99403.03;;;18.18;62.81
55990;BME280;41875;55.806;38.082;2022-07-29T01:59:46;99409.03;;;18.65;60.89
55990;BME280;41875;55.806;38.082;2022-07-29T02:02:16;99414.81;;;18.62;60.89
55990;BME280;41875;55.806;38.082;2022-07-29T02:04:46;99407.69;;;18.42;61.43
55990;BME280;41875;55.806;38.082;2022-07-29T02:07:15;99410.13;;;18.51;61.04
55990;BME280;41875;55.806;38.082;2022-07-29T02:09:44;99408.13;;;18.39;61.30
55990;BME280;41875;55.806;38.082;2022-07-29T02:12:14;99412.25;;;18.35;61.58
55990;BME280;41875;55.806;38.082;2022-07-29T02:14:43;99407.72;;;18.36;61.13
55990;BME280;41875;55.806;38.082;2022-07-29T02:17:14;99409.44;;;18.10;61.86
55990;BME280;41875;55.806;38.082;2022-07-29T02:19:46;99409.94;;;18.46;60.91
55990;BME280;41875;55.806;38.082;2022-07-29T02:22:15;99410.09;;;18.57;60.57
55990;BME280;41875;55.806;38.082;2022-07-29T02:24:44;99414.28;;;19.93;56.49
55990;BME280;41875;55.806;38.082;2022-07-29T02:27:14;99412.03;;;21.07;52.75
55990;BME280;41875;55.806;38.082;2022-07-29T02:29:43;99416.06;;;21.40;51.91
55990;BME280;41875;55.806;38.082;2022-07-29T02:32:14;99415.50;;;21.74;50.72
55990;BME280;41875;55.806;38.082;2022-07-29T02:34:43;99404.59;;;20.91;52.99
55990;BME280;41875;55.806;38.082;2022-07-29T02:37:12;99414.69;;;22.50;48.75
55990;BME280;41875;55.806;38.082;2022-07-29T02:39:41;99420.09;;;22.79;47.94
55990;BME280;41875;55.806;38.082;2022-07-29T02:42:12;99417.31;;;23.93;45.51
55990;BME280;41875;55.806;38.082;2022-07-29T02:44:41;99420.91;;;24.88;42.86
55990;BME280;41875;55.806;38.082;2022-07-29T02:47:10;99414.94;;;24.63;43.36
55990;BME280;41875;55.806;38.082;2022-07-29T02:49:43;99420.06;;;25.15;41.95
55990;BME280;41875;55.806;38.082;2022-07-29T02:52:18;99431.84;;;24.98;41.82
55990;BME280;41875;55.806;38.082;2022-07-29T02:54:50;99433.78;;;25.68;40.89
55990;BME280;41875;55.806;38.082;2022-07-29T02:57:20;99431.22;;;25.18;41.80
55990;BME280;41875;55.806;38.082;2022-07-29T02:59:50;99434.97;;;26.30;39.48
55990;BME280;41875;55.806;38.082;2022-07-29T03:02:19;99433.44;;;26.71;38.51
55990;BME280;41875;55.806;38.082;2022-07-29T03:04:49;99431.34;;;25.66;40.07
55990;BME280;41875;55.806;38.082;2022-07-29T03:07:19;99427.38;;;24.37;42.83
55990;BME280;41875;55.806;38.082;2022-07-29T03:09:48;99425.59;;;24.03;43.17
55990;BME280;41875;55.806;38.082;2022-07-29T03:12:17;99433.97;;;23.85;43.73
55990;BME280;41875;55.806;38.082;2022-07-29T03:14:48;99425.72;;;24.36;42.68
55990;BME280;41875;55.806;38.082;2022-07-29T03:17:17;99433.16;;;24.24;42.92
55990;BME280;41875;55.806;38.082;2022-07-29T03:19:46;99426.88;;;24.40;42.21
55990;BME280;41875;55.806;38.082;2022-07-29T03:22:15;99426.88;;;25.93;39.27
55990;BME280;41875;55.806;38.082;2022-07-29T03:24:45;99422.44;;;25.76;39.60
55990;BME280;41875;55.806;38.082;2022-07-29T03:27:13;99430.25;;;25.35;39.52
55990;BME280;41875;55.806;38.082;2022-07-29T03:29:41;99415.00;;;25.61;39.58
55990;BME280;41875;55.806;38.082;2022-07-29T03:32:16;99428.22;;;25.47;39.73
55990;BME280;41875;55.806;38.082;2022-07-29T03:34:49;99426.25;;;25.10;40.74
55990;BME280;41875;55.806;38.082;2022-07-29T03:37:19;99421.88;;;22.44;46.03
55990;BME280;41875;55.806;38.082;2022-07-29T03:39:47;99437.31;;;22.90;45.64
55990;BME280;41875;55.806;38.082;2022-07-29T03:42:17;99437.88;;;22.92;45.48
55990;BME280;41875;55.806;38.082;2022-07-29T03:44:47;99432.38;;;21.69;48.18
55990;BME280;41875;55.806;38.082;2022-07-29T03:47:17;99435.50;;;21.42;48.95
55990;BME280;41875;55.806;38.082;2022-07-29T03:49:48;99435.97;;;20.85;50.90
55990;BME280;41875;55.806;38.082;2022-07-29T03:52:19;99441.31;;;20.17;52.88
55990;BME280;41875;55.806;38.082;2022-07-29T03:54:48;99428.63;;;21.04;50.75
55990;BME280;41875;55.806;38.082;2022-07-29T03:57:17;99438.50;;;21.10;50.56
55990;BME280;41875;55.806;38.082;2022-07-29T03:59:48;99443.06;;;21.10;50.49
55990;BME280;41875;55.806;38.082;2022-07-29T04:02:16;99445.41;;;20.57;51.42
55990;BME280;41875;55.806;38.082;2022-07-29T04:04:50;99442.63;;;20.82;51.40
55990;BME280;41875;55.806;38.082;2022-07-29T04:07:19;99438.44;;;20.68;50.46
55990;BME280;41875;55.806;38.082;2022-07-29T04:09:48;99449.22;;;20.68;51.51
55990;BME280;41875;55.806;38.082;2022-07-29T04:12:16;99438.78;;;20.90;50.38
55990;BME280;41875;55.806;38.082;2022-07-29T04:14:44;99443.56;;;21.30;50.17
55990;BME280;41875;55.806;38.082;2022-07-29T04:17:13;99455.94;;;21.86;48.37
55990;BME280;41875;55.806;38.082;2022-07-29T04:19:41;99460.75;;;21.84;48.73
55990;BME280;41875;55.806;38.082;2022-07-29T04:22:09;99453.66;;;20.74;50.71
55990;BME280;41875;55.806;38.082;2022-07-29T04:24:39;99449.06;;;21.24;49.99
55990;BME280;41875;55.806;38.082;2022-07-29T04:27:10;99455.47;;;22.01;48.08
55990;BME280;41875;55.806;38.082;2022-07-29T04:29:38;99453.38;;;21.79;48.33
55990;BME280;41875;55.806;38.082;2022-07-29T04:32:23;99451.22;;;21.45;48.99
55990;BME280;41875;55.806;38.082;2022-07-29T04:34:51;99447.47;;;21.46;48.98
55990;BME280;41875;55.806;38.082;2022-07-29T04:37:19;99456.31;;;21.77;48.33
55990;BME280;41875;55.806;38.082;2022-07-29T04:39:51;99453.66;;;21.23;48.61
55990;BME280;41875;55.806;38.082;2022-07-29T04:42:19;99453.19;;;21.38;48.43
55990;BME280;41875;55.806;38.082;2022-07-29T04:44:53;99464.50;;;22.06;47.11
55990;BME280;41875;55.806;38.082;2022-07-29T04:47:21;99472.41;;;22.61;46.26
55990;BME280;41875;55.806;38.082;2022-07-29T04:49:50;99467.03;;;22.37;46.39
55990;BME280;41875;55.806;38.082;2022-07-29T04:52:18;99465.69;;;21.99;46.58
55990;BME280;41875;55.806;38.082;2022-07-29T04:54:47;99465.69;;;21.75;47.47
55990;BME280;41875;55.806;38.082;2022-07-29T04:57:16;99468.28;;;22.58;45.79
55990;BME280;41875;55.806;38.082;2022-07-29T04:59:45;99468.41;;;22.63;44.58
55990;BME280;41875;55.806;38.082;2022-07-29T05:02:13;99470.22;;;22.75;44.44
55990;BME280;41875;55.806;38.082;2022-07-29T05:04:41;99467.72;;;22.85;44.13
55990;BME280;41875;55.806;38.082;2022-07-29T05:07:09;99462.03;;;23.27;43.70
55990;BME280;41875;55.806;38.082;2022-07-29T05:09:38;99456.00;;;22.79;44.47
55990;BME280;41875;55.806;38.082;2022-07-29T05:12:07;99459.59;;;22.68;44.18
55990;BME280;41875;55.806;38.082;2022-07-29T05:14:37;99456.78;;;22.92;44.02
55990;BME280;41875;55.806;38.082;2022-07-29T05:17:06;99461.22;;;22.98;44.06
55990;BME280;41875;55.806;38.082;2022-07-29T05:19:34;99436.88;;;22.52;43.28
55990;BME280;41875;55.806;38.082;2022-07-29T05:22:05;99452.97;;;22.47;42.49
55990;BME280;41875;55.806;38.082;2022-07-29T05:24:33;99459.69;;;22.08;43.01
55990;BME280;41875;55.806;38.082;2022-07-29T05:27:02;99462.72;;;22.24;42.10
55990;BME280;41875;55.806;38.082;2022-07-29T05:29:30;99465.63;;;22.34;42.55
55990;BME280;41875;55.806;38.082;2022-07-29T05:32:12;99462.22;;;22.39;41.88
55990;BME280;41875;55.806;38.082;2022-07-29T05:34:41;99464.34;;;22.37;41.14
55990;BME280;41875;55.806;38.082;2022-07-29T05:37:17;99464.94;;;22.80;41.31
55990;BME280;41875;55.806;38.082;2022-07-29T05:39:46;99463.38;;;23.13;41.08
55990;BME280;41875;55.806;38.082;2022-07-29T05:42:23;99471.13;;;23.89;39.97
55990;BME280;41875;55.806;38.082;2022-07-29T05:44:51;99461.13;;;23.56;39.99
55990;BME280;41875;55.806;38.082;2022-07-29T05:47:21;99467.97;;;22.55;40.98
55990;BME280;41875;55.806;38.082;2022-07-29T05:49:49;99477.13;;;22.82;40.13
55990;BME280;41875;55.806;38.082;2022-07-29T05:52:18;99469.47;;;22.62;39.98
55990;BME280;41875;55.806;38.082;2022-07-29T05:54:46;99472.34;;;23.02;39.67
55990;BME280;41875;55.806;38.082;2022-07-29T05:57:15;99466.16;;;22.72;40.30
55990;BME280;41875;55.806;38.082;2022-07-29T05:59:43;99467.03;;;22.25;41.33
55990;BME280;41875;55.806;38.082;2022-07-29T06:02:12;99468.34;;;22.34;40.68
55990;BME280;41875;55.806;38.082;2022-07-29T06:04:41;99469.28;;;22.28;41.10
55990;BME280;41875;55.806;38.082;2022-07-29T06:07:10;99453.38;;;22.67;40.83
55990;BME280;41875;55.806;38.082;2022-07-29T06:09:38;99466.75;;;22.62;40.30
55990;BME280;41875;55.806;38.082;2022-07-29T06:12:06;99454.81;;;23.50;39.84
55990;BME280;41875;55.806;38.082;2022-07-29T06:14:35;99452.06;;;23.16;39.55
55990;BME280;41875;55.806;38.082;2022-07-29T06:17:04;99462.13;;;22.75;38.68
55990;BME280;41875;55.806;38.082;2022-07-29T06:19:33;99455.09;;;23.49;38.05
55990;BME280;41875;55.806;38.082;2022-07-29T06:22:03;99458.59;;;23.32;38.37
55990;BME280;41875;55.806;38.082;2022-07-29T06:24:32;99463.84;;;23.56;38.52
55990;BME280;41875;55.806;38.082;2022-07-29T06:27:00;99459.78;;;23.93;37.77
55990;BME280;41875;55.806;38.082;2022-07-29T06:29:28;99452.59;;;23.47;38.56
55990;BME280;41875;55.806;38.082;2022-07-29T06:31:57;99451.38;;;22.92;39.04
55990;BME280;41875;55.806;38.082;2022-07-29T06:34:25;99454.47;;;22.83;39.40
55990;BME280;41875;55.806;38.082;2022-07-29T06:36:54;99464.25;;;22.73;38.57
55990;BME280;41875;55.806;38.082;2022-07-29T06:39:23;99455.84;;;22.86;39.62
55990;BME280;41875;55.806;38.082;2022-07-29T06:41:52;99459.66;;;23.65;37.99
55990;BME280;41875;55.806;38.082;2022-07-29T06:44:24;99448.53;;;24.18;37.57
55990;BME280;41875;55.806;38.082;2022-07-29T06:46:52;99436.69;;;24.46;36.82
55990;BME280;41875;55.806;38.082;2022-07-29T06:49:21;99446.25;;;23.93;37.37
55990;BME280;41875;55.806;38.082;2022-07-29T06:51:51;99439.03;;;23.42;38.19
55990;BME280;41875;55.806;38.082;2022-07-29T06:54:19;99453.81;;;24.30;36.57
55990;BME280;41875;55.806;38.082;2022-07-29T06:56:49;99454.44;;;24.15;37.09
55990;BME280;41875;55.806;38.082;2022-07-29T06:59:18;99472.97;;;22.92;38.26
55990;BME280;41875;55.806;38.082;2022-07-29T07:01:57;99460.47;;;24.00;37.08
55990;BME280;41875;55.806;38.082;2022-07-29T07:04:26;99452.84;;;23.80;36.85
55990;BME280;41875;55.806;38.082;2022-07-29T07:06:54;99475.56;;;23.79;37.32
55990;BME280;41875;55.806;38.082;2022-07-29T07:09:22;99460.41;;;24.17;37.14
55990;BME280;41875;55.806;38.082;2022-07-29T07:12:07;99459.28;;;23.96;36.84
55990;BME280;41875;55.806;38.082;2022-07-29T07:14:35;99475.91;;;23.65;36.33
55990;BME280;41875;55.806;38.082;2022-07-29T07:17:04;99460.47;;;23.32;37.70
55990;BME280;41875;55.806;38.082;2022-07-29T07:19:34;99464.06;;;23.37;38.06
55990;BME280;41875;55.806;38.082;2022-07-29T07:22:02;99471.94;;;23.90;37.07
55990;BME280;41875;55.806;38.082;2022-07-29T07:24:33;99469.41;;;24.23;37.03
55990;BME280;41875;55.806;38.082;2022-07-29T07:27:02;99470.91;;;23.74;38.66
55990;BME280;41875;55.806;38.082;2022-07-29T07:29:31;99483.34;;;24.31;36.42
55990;BME280;41875;55.806;38.082;2022-07-29T07:32:00;99471.75;;;24.36;36.13
55990;BME280;41875;55.806;38.082;2022-07-29T07:34:28;99474.72;;;24.57;36.38
55990;BME280;41875;55.806;38.082;2022-07-29T07:36:57;99475.19;;;24.09;37.28
55990;BME280;41875;55.806;38.082;2022-07-29T07:39:25;99471.38;;;23.37;38.95
55990;BME280;41875;55.806;38.082;2022-07-29T07:41:54;99470.06;;;23.73;37.43
55990;BME280;41875;55.806;38.082;2022-07-29T07:44:22;99473.28;;;24.27;36.98
55990;BME280;41875;55.806;38.082;2022-07-29T07:46:52;99470.69;;;24.37;36.44
55990;BME280;41875;55.806;38.082;2022-07-29T07:49:20;99468.16;;;24.30;37.02
55990;BME280;41875;55.806;38.082;2022-07-29T07:51:48;99476.66;;;24.61;36.23
55990;BME280;41875;55.806;38.082;2022-07-29T07:54:17;99482.00;;;25.01;35.93
55990;BME280;41875;55.806;38.082;2022-07-29T07:56:46;99478.25;;;25.67;34.52
55990;BME280;41875;55.806;38.082;2022-07-29T07:59:19;99457.72;;;25.11;35.18
55990;BME280;41875;55.806;38.082;2022-07-29T08:01:47;99480.50;;;24.88;35.72
55990;BME280;41875;55.806;38.082;2022-07-29T08:04:23;99482.22;;;24.27;35.71
55990;BME280;41875;55.806;38.082;2022-07-29T08:06:55;99474.38;;;24.98;34.59
55990;BME280;41875;55.806;38.082;2022-07-29T08:09:23;99481.13;;;25.87;34.20
55990;BME280;41875;55.806;38.082;2022-07-29T08:11:56;99473.75;;;25.45;34.29
55990;BME280;41875;55.806;38.082;2022-07-29T08:14:25;99479.50;;;24.94;35.39
55990;BME280;41875;55.806;38.082;2022-07-29T08:16:53;99474.41;;;25.30;34.45
55990;BME280;41875;55.806;38.082;2022-07-29T08:19:23;99477.13;;;24.53;35.35
55990;BME280;41875;55.806;38.082;2022-07-29T08:21:52;99471.00;;;24.85;34.84
55990;BME280;41875;55.806;38.082;2022-07-29T08:24:21;99479.13;;;24.41;35.31
55990;BME280;41875;55.806;38.082;2022-07-29T08:27:07;99477.81;;;24.88;35.22
55990;BME280;41875;55.806;38.082;2022-07-29T08:29:55;99472.66;;;25.79;34.21
55990;BME280;41875;55.806;38.082;2022-07-29T08:32:24;99488.22;;;25.29;34.31
55990;BME280;41875;55.806;38.082;2022-07-29T08:35:13;99473.75;;;25.83;33.36
55990;BME280;41875;55.806;38.082;2022-07-29T08:37:42;99476.59;;;26.03;33.17
55990;BME280;41875;55.806;38.082;2022-07-29T08:40:10;99466.66;;;25.77;33.67
55990;BME280;41875;55.806;38.082;2022-07-29T08:42:39;99476.47;;;26.89;31.69
55990;BME280;41875;55.806;38.082;2022-07-29T08:45:07;99482.09;;;25.38;33.21
55990;BME280;41875;55.806;38.082;2022-07-29T08:47:37;99471.91;;;25.51;31.26
55990;BME280;41875;55.806;38.082;2022-07-29T08:50:07;99468.13;;;25.57;31.47
55990;BME280;41875;55.806;38.082;2022-07-29T08:52:38;99464.84;;;25.50;32.05
55990;BME280;41875;55.806;38.082;2022-07-29T08:55:07;99477.00;;;25.80;31.19
55990;BME280;41875;55.806;38.082;2022-07-29T08:57:37;99472.38;;;26.23;30.58
55990;BME280;41875;55.806;38.082;2022-07-29T09:00:17;99469.50;;;25.97;30.51
55990;BME280;41875;55.806;38.082;2022-07-29T09:02:46;99476.66;;;24.84;32.63
55990;BME280;41875;55.806;38.082;2022-07-29T09:05:18;99475.13;;;25.85;31.36
55990;BME280;41875;55.806;38.082;2022-07-29T09:07:48;99480.38;;;26.51;29.95
55990;BME280;41875;55.806;38.082;2022-07-29T09:10:17;99477.84;;;26.97;29.60
55990;BME280;41875;55.806;38.082;2022-07-29T09:12:45;99481.66;;;27.22;30.06
55990;BME280;41875;55.806;38.082;2022-07-29T09:15:15;99475.78;;;26.03;30.98
55990;BME280;41875;55.806;38.082;2022-07-29T09:17:44;99480.09;;;25.99;31.00
55990;BME280;41875;55.806;38.082;2022-07-29T09:20:13;99472.47;;;25.53;32.04
55990;BME280;41875;55.806;38.082;2022-07-29T09:22:42;99471.16;;;25.61;32.15
55990;BME280;41875;55.806;38.082;2022-07-29T09:25:12;99477.59;;;25.92;31.15
55990;BME280;41875;55.806;38.082;2022-07-29T09:27:41;99475.41;;;26.32;30.06
55990;BME280;41875;55.806;38.082;2022-07-29T09:30:09;99469.16;;;25.46;31.15
55990;BME280;41875;55.806;38.082;2022-07-29T09:32:53;99476.25;;;25.52;32.29
55990;BME280;41875;55.806;38.082;2022-07-29T09:35:23;99480.81;;;25.19;31.85
55990;BME280;41875;55.806;38.082;2022-07-29T09:37:51;99480.69;;;26.59;30.84
55990;BME280;41875;55.806;38.082;2022-07-29T09:40:21;99474.84;;;27.24;29.81
55990;BME280;41875;55.806;38.082;2022-07-29T09:42:51;99491.13;;;26.93;29.25
55990;BME280;41875;55.806;38.082;2022-07-29T09:45:26;99492.47;;;26.22;30.30
55990;BME280;41875;55.806;38.082;2022-07-29T09:47:55;99473.41;;;26.12;30.04
55990;BME280;41875;55.806;38.082;2022-07-29T09:50:36;99480.72;;;25.68;31.30
55990;BME280;41875;55.806;38.082;2022-07-29T09:53:04;99482.06;;;26.09;30.32
55990;BME280;41875;55.806;38.082;2022-07-29T09:55:40;99477.31;;;26.31;30.55
55990;BME280;41875;55.806;38.082;2022-07-29T09:58:16;99481.66;;;26.32;30.22
55990;BME280;41875;55.806;38.082;2022-07-29T10:00:45;99474.03;;;26.24;30.98
55990;BME280;41875;55.806;38.082;2022-07-29T10:03:14;99465.28;;;25.09;32.34
55990;BME280;41875;55.806;38.082;2022-07-29T10:05:43;99486.38;;;25.67;31.94
55990;BME280;41875;55.806;38.082;2022-07-29T10:08:12;99485.88;;;26.66;30.20
55990;BME280;41875;55.806;38.082;2022-07-29T10:10:42;99483.59;;;25.94;31.50
55990;BME280;41875;55.806;38.082;2022-07-29T10:13:11;99488.38;;;26.83;30.32
55990;BME280;41875;55.806;38.082;2022-07-29T10:15:42;99482.75;;;26.31;30.67
55990;BME280;41875;55.806;38.082;2022-07-29T10:18:13;99487.63;;;26.35;30.55
55990;BME280;41875;55.806;38.082;2022-07-29T10:20:44;99477.84;;;26.97;29.93
55990;BME280;41875;55.806;38.082;2022-07-29T10:23:12;99485.44;;;27.00;30.17
55990;BME280;41875;55.806;38.082;2022-07-29T10:25:42;99474.50;;;28.24;28.83
55990;BME280;41875;55.806;38.082;2022-07-29T10:28:12;99484.63;;;28.03;28.77
55990;BME280;41875;55.806;38.082;2022-07-29T10:30:42;99475.13;;;27.90;28.56
55990;BME280;41875;55.806;38.082;2022-07-29T10:33:21;99473.22;;;27.03;29.71
55990;BME280;41875;55.806;38.082;2022-07-29T10:35:59;99475.09;;;26.92;30.04
55990;BME280;41875;55.806;38.082;2022-07-29T10:38:43;99467.53;;;27.41;29.05
55990;BME280;41875;55.806;38.082;2022-07-29T10:41:21;99470.50;;;27.23;29.71
55990;BME280;41875;55.806;38.082;2022-07-29T10:44:02;99483.91;;;26.46;31.01
55990;BME280;41875;55.806;38.082;2022-07-29T10:46:34;99477.06;;;24.70;33.76
55990;BME280;41875;55.806;38.082;2022-07-29T10:49:07;99484.78;;;26.09;31.88
55990;BME280;41875;55.806;38.082;2022-07-29T10:51:57;99488.63;;;26.13;31.94
55990;BME280;41875;55.806;38.082;2022-07-29T10:54:36;99488.44;;;26.99;29.70
55990;BME280;41875;55.806;38.082;2022-07-29T10:57:17;99476.09;;;26.75;30.67
55990;BME280;41875;55.806;38.082;2022-07-29T11:02:45;99486.91;;;26.55;30.53
55990;BME280;41875;55.806;38.082;2022-07-29T11:05:19;99486.41;;;26.63;30.78
55990;BME280;41875;55.806;38.082;2022-07-29T11:10:45;99493.06;;;26.29;30.44
55990;BME280;41875;55.806;38.082;2022-07-29T11:16:05;99498.81;;;26.38;30.91
55990;BME280;41875;55.806;38.082;2022-07-29T11:18:34;99484.59;;;26.84;30.80
55990;BME280;41875;55.806;38.082;2022-07-29T11:21:02;99479.03;;;26.53;31.36
55990;BME280;41875;55.806;38.082;2022-07-29T11:23:32;99473.81;;;26.41;31.02
55990;BME280;41875;55.806;38.082;2022-07-29T11:26:16;99478.38;;;26.99;30.10
55990;BME280;41875;55.806;38.082;2022-07-29T11:28:54;99480.59;;;27.44;29.09
55990;BME280;41875;55.806;38.082;2022-07-29T11:31:33;99477.03;;;27.43;29.15
55990;BME280;41875;55.806;38.082;2022-07-29T11:34:18;99477.59;;;27.81;28.43
55990;BME280;41875;55.806;38.082;2022-07-29T11:39:36;99481.25;;;26.61;30.01
55990;BME280;41875;55.806;38.082;2022-07-29T11:45:02;99482.97;;;26.20;31.06
55990;BME280;41875;55.806;38.082;2022-07-29T11:47:54;99492.41;;;26.75;30.22
55990;BME280;41875;55.806;38.082;2022-07-29T11:50:44;99479.41;;;26.14;30.86
55990;BME280;41875;55.806;38.082;2022-07-29T11:53:14;99486.78;;;26.92;29.70
55990;BME280;41875;55.806;38.082;2022-07-29T11:55:42;99483.56;;;27.83;28.68
55990;BME280;41875;55.806;38.082;2022-07-29T11:58:20;99489.00;;;27.16;29.15
55990;BME280;41875;55.806;38.082;2022-07-29T12:00:51;99491.69;;;26.96;30.03
55990;BME280;41875;55.806;38.082;2022-07-29T12:03:25;99491.44;;;28.06;28.76
55990;BME280;41875;55.806;38.082;2022-07-29T12:06:02;99483.63;;;27.47;30.13
55990;BME280;41875;55.806;38.082;2022-07-29T12:08:39;99492.28;;;27.29;28.92
55990;BME280;41875;55.806;38.082;2022-07-29T12:11:15;99494.94;;;26.87;29.52
55990;BME280;41875;55.806;38.082;2022-07-29T12:13:46;99490.44;;;26.55;30.31
55990;BME280;41875;55.806;38.082;2022-07-29T12:16:15;99491.44;;;27.07;29.65
55990;BME280;41875;55.806;38.082;2022-07-29T12:18:57;99486.63;;;26.51;30.48
55990;BME280;41875;55.806;38.082;2022-07-29T12:21:25;99483.09;;;26.02;28.80
55990;BME280;41875;55.806;38.082;2022-07-29T12:23:55;99476.81;;;25.92;30.05
55990;BME280;41875;55.806;38.082;2022-07-29T12:26:32;99484.72;;;26.46;29.41
55990;BME280;41875;55.806;38.082;2022-07-29T12:29:01;99493.94;;;26.45;29.65
55990;BME280;41875;55.806;38.082;2022-07-29T12:31:37;99485.91;;;25.75;30.86
55990;BME280;41875;55.806;38.082;2022-07-29T12:34:11;99487.22;;;26.10;30.59
55990;BME280;41875;55.806;38.082;2022-07-29T12:36:40;99485.19;;;27.07;29.62
55990;BME280;41875;55.806;38.082;2022-07-29T12:39:09;99483.19;;;26.76;30.03
55990;BME280;41875;55.806;38.082;2022-07-29T12:41:39;99482.50;;;27.22;29.50
55990;BME280;41875;55.806;38.082;2022-07-29T12:44:07;99481.63;;;27.99;29.10
55990;BME280;41875;55.806;38.082;2022-07-29T12:46:35;99483.22;;;28.21;28.10
55990;BME280;41875;55.806;38.082;2022-07-29T12:49:05;99472.69;;;27.89;28.13
55990;BME280;41875;55.806;38.082;2022-07-29T12:51:35;99469.16;;;27.88;28.20
55990;BME280;41875;55.806;38.082;2022-07-29T12:54:05;99468.09;;;28.60;27.08
55990;BME280;41875;55.806;38.082;2022-07-29T12:56:34;99469.50;;;28.52;28.06
55990;BME280;41875;55.806;38.082;2022-07-29T12:59:11;99475.22;;;28.51;27.71
55990;BME280;41875;55.806;38.082;2022-07-29T13:01:39;99480.00;;;28.14;27.86
55990;BME280;41875;55.806;38.082;2022-07-29T13:04:08;99480.03;;;27.83;27.48
55990;BME280;41875;55.806;38.082;2022-07-29T13:06:38;99473.91;;;28.43;27.55
55990;BME280;41875;55.806;38.082;2022-07-29T13:09:10;99467.84;;;29.46;25.86
55990;BME280;41875;55.806;38.082;2022-07-29T13:11:40;99470.63;;;28.46;26.89
55990;BME280;41875;55.806;38.082;2022-07-29T13:14:30;99471.34;;;27.65;28.86
55990;BME280;41875;55.806;38.082;2022-07-29T13:17:00;99473.53;;;27.68;28.56
55990;BME280;41875;55.806;38.082;2022-07-29T13:19:32;99470.78;;;27.89;27.91
55990;BME280;41875;55.806;38.082;2022-07-29T13:22:02;99475.38;;;28.09;28.10
55990;BME280;41875;55.806;38.082;2022-07-29T13:24:31;99474.06;;;28.62;26.95
55990;BME280;41875;55.806;38.082;2022-07-29T13:26:59;99472.03;;;28.38;27.72